sensor_id;sensor_type;location;lat;lon;timestamp;P1;durP1;ratioP1;P2;durP2;ratioP2
7027;SDS011;3555;53.248;10.336;2023-06-14T00:00:41;4.35;;;2.40;;
7027;SDS011;3555;53.248;10.336;2023-06-14T00:03:09;4.53;;;2.47;;
7027;SDS011;3555;53.248;10.336;2023-06-14T00:05:36;4.88;;;2.53;;
7027;SDS011;3555;53.248;10.336;2023-06-14T00:08:08;5.00;;;2.42;;
7027;SDS011;3555;53.248;10.336;2023-06-14T00:10:35;5.40;;;2.45;;
7027;SDS011;3555;53.248;10.336;2023-06-14T00:13:05;4.70;;;2.28;;
7027;SDS011;3555;53.248;10.336;2023-06-14T00:15:32;5.85;;;2.42;;
7027;SDS011;3555;53.248;10.336;2023-06-14T00:17:59;5.05;;;2.40;;
7027;SDS011;3555;53.248;10.336;2023-06-14T00:20:26;6.28;;;2.58;;
7027;SDS011;3555;53.248;10.336;2023-06-14T00:22:53;5.75;;;2.92;;
7027;SDS011;3555;53.248;10.336;2023-06-14T00:25:21;4.47;;;2.50;;
7027;SDS011;3555;53.248;10.336;2023-06-14T00:27:50;3.13;;;2.20;;
7027;SDS011;3555;53.248;10.336;2023-06-14T00:30:18;4.97;;;2.85;;
7027;SDS011;3555;53.248;10.336;2023-06-14T00:32:45;8.20;;;2.53;;
7027;SDS011;3555;53.248;10.336;2023-06-14T00:35:13;4.65;;;2.38;;
7027;SDS011;3555;53.248;10.336;2023-06-14T00:37:40;6.47;;;2.60;;
7027;SDS011;3555;53.248;10.336;2023-06-14T00:40:07;5.90;;;2.60;;
7027;SDS011;3555;53.248;10.336;2023-06-14T00:42:34;3.90;;;2.38;;
7027;SDS011;3555;53.248;10.336;2023-06-14T00:45:01;6.53;;;2.65;;
7027;SDS011;3555;53.248;10.336;2023-06-14T00:47:30;3.95;;;2.20;;
7027;SDS011;3555;53.248;10.336;2023-06-14T00:49:56;5.25;;;2.67;;
7027;SDS011;3555;53.248;10.336;2023-06-14T00:52:24;5.25;;;2.45;;
7027;SDS011;3555;53.248;10.336;2023-06-14T00:54:51;4.80;;;2.15;;
7027;SDS011;3555;53.248;10.336;2023-06-14T00:57:18;4.88;;;2.33;;
7027;SDS011;3555;53.248;10.336;2023-06-14T00:59:46;5.75;;;2.70;;
7027;SDS011;3555;53.248;10.336;2023-06-14T01:02:15;7.90;;;2.65;;
7027;SDS011;3555;53.248;10.336;2023-06-14T01:04:45;4.68;;;2.65;;
7027;SDS011;3555;53.248;10.336;2023-06-14T01:07:15;5.20;;;2.65;;
7027;SDS011;3555;53.248;10.336;2023-06-14T01:09:55;3.85;;;2.38;;
7027;SDS011;3555;53.248;10.336;2023-06-14T01:12:34;5.28;;;2.63;;
7027;SDS011;3555;53.248;10.336;2023-06-14T01:15:05;4.43;;;2.40;;
7027;SDS011;3555;53.248;10.336;2023-06-14T01:17:34;8.02;;;2.78;;
7027;SDS011;3555;53.248;10.336;2023-06-14T01:20:10;6.85;;;2.30;;
7027;SDS011;3555;53.248;10.336;2023-06-14T01:22:45;8.82;;;2.45;;
7027;SDS011;3555;53.248;10.336;2023-06-14T01:25:16;5.88;;;2.92;;
7027;SDS011;3555;53.248;10.336;2023-06-14T01:27:46;7.15;;;2.38;;
7027;SDS011;3555;53.248;10.336;2023-06-14T01:30:15;5.30;;;2.35;;
7027;SDS011;3555;53.248;10.336;2023-06-14T01:32:44;4.57;;;2.20;;
7027;SDS011;3555;53.248;10.336;2023-06-14T01:35:13;4.20;;;2.40;;
7027;SDS011;3555;53.248;10.336;2023-06-14T01:37:40;6.13;;;2.60;;
7027;SDS011;3555;53.248;10.336;2023-06-14T01:40:10;5.60;;;2.55;;
7027;SDS011;3555;53.248;10.336;2023-06-14T01:42:38;6.35;;;2.13;;
7027;SDS011;3555;53.248;10.336;2023-06-14T01:45:07;5.15;;;2.22;;
7027;SDS011;3555;53.248;10.336;2023-06-14T01:47:35;4.88;;;2.63;;
7027;SDS011;3555;53.248;10.336;2023-06-14T01:50:03;6.78;;;2.50;;
7027;SDS011;3555;53.248;10.336;2023-06-14T01:52:30;3.38;;;2.40;;
7027;SDS011;3555;53.248;10.336;2023-06-14T01:54:57;5.47;;;2.20;;
7027;SDS011;3555;53.248;10.336;2023-06-14T01:57:28;5.47;;;2.55;;
7027;SDS011;3555;53.248;10.336;2023-06-14T01:59:55;4.75;;;2.47;;
7027;SDS011;3555;53.248;10.336;2023-06-14T02:02:22;8.60;;;2.63;;
7027;SDS011;3555;53.248;10.336;2023-06-14T02:04:49;2.97;;;2.10;;
7027;SDS011;3555;53.248;10.336;2023-06-14T02:07:17;4.25;;;2.55;;
7027;SDS011;3555;53.248;10.336;2023-06-14T02:09:44;5.63;;;2.45;;
7027;SDS011;3555;53.248;10.336;2023-06-14T02:12:11;5.30;;;2.60;;
7027;SDS011;3555;53.248;10.336;2023-06-14T02:14:39;3.15;;;2.30;;
7027;SDS011;3555;53.248;10.336;2023-06-14T02:17:06;3.03;;;2.20;;
7027;SDS011;3555;53.248;10.336;2023-06-14T02:19:33;4.10;;;2.03;;
7027;SDS011;3555;53.248;10.336;2023-06-14T02:21:59;3.28;;;2.22;;
7027;SDS011;3555;53.248;10.336;2023-06-14T02:24:26;4.68;;;2.40;;
7027;SDS011;3555;53.248;10.336;2023-06-14T02:26:53;4.53;;;2.42;;
7027;SDS011;3555;53.248;10.336;2023-06-14T02:29:20;8.65;;;2.30;;
7027;SDS011;3555;53.248;10.336;2023-06-14T02:31:48;5.03;;;2.88;;
7027;SDS011;3555;53.248;10.336;2023-06-14T02:34:15;4.85;;;2.33;;
7027;SDS011;3555;53.248;10.336;2023-06-14T02:36:43;7.72;;;2.72;;
7027;SDS011;3555;53.248;10.336;2023-06-14T02:39:10;5.55;;;2.42;;
7027;SDS011;3555;53.248;10.336;2023-06-14T02:41:37;4.40;;;2.53;;
7027;SDS011;3555;53.248;10.336;2023-06-14T02:44:04;5.10;;;2.53;;
7027;SDS011;3555;53.248;10.336;2023-06-14T02:46:31;5.28;;;2.50;;
7027;SDS011;3555;53.248;10.336;2023-06-14T02:49:00;3.88;;;2.45;;
7027;SDS011;3555;53.248;10.336;2023-06-14T02:51:27;9.43;;;2.72;;
7027;SDS011;3555;53.248;10.336;2023-06-14T02:53:54;4.38;;;2.75;;
7027;SDS011;3555;53.248;10.336;2023-06-14T02:56:21;6.22;;;2.60;;
7027;SDS011;3555;53.248;10.336;2023-06-14T02:58:47;4.55;;;2.45;;
7027;SDS011;3555;53.248;10.336;2023-06-14T03:01:15;4.10;;;3.00;;
7027;SDS011;3555;53.248;10.336;2023-06-14T03:03:43;4.53;;;2.55;;
7027;SDS011;3555;53.248;10.336;2023-06-14T03:06:11;3.22;;;2.50;;
7027;SDS011;3555;53.248;10.336;2023-06-14T03:08:39;5.65;;;2.38;;
7027;SDS011;3555;53.248;10.336;2023-06-14T03:11:06;3.67;;;2.33;;
7027;SDS011;3555;53.248;10.336;2023-06-14T03:13:33;5.18;;;2.83;;
7027;SDS011;3555;53.248;10.336;2023-06-14T03:16:00;7.40;;;2.97;;
7027;SDS011;3555;53.248;10.336;2023-06-14T03:18:28;5.82;;;2.60;;
7027;SDS011;3555;53.248;10.336;2023-06-14T03:21:00;4.30;;;2.92;;
7027;SDS011;3555;53.248;10.336;2023-06-14T03:23:29;6.60;;;3.15;;
7027;SDS011;3555;53.248;10.336;2023-06-14T03:25:56;8.32;;;2.97;;
7027;SDS011;3555;53.248;10.336;2023-06-14T03:28:23;6.90;;;3.50;;
7027;SDS011;3555;53.248;10.336;2023-06-14T03:30:50;9.18;;;3.38;;
7027;SDS011;3555;53.248;10.336;2023-06-14T03:33:17;5.13;;;2.83;;
7027;SDS011;3555;53.248;10.336;2023-06-14T03:35:44;4.63;;;2.88;;
7027;SDS011;3555;53.248;10.336;2023-06-14T03:38:11;9.90;;;3.25;;
7027;SDS011;3555;53.248;10.336;2023-06-14T03:40:40;5.43;;;2.88;;
7027;SDS011;3555;53.248;10.336;2023-06-14T03:43:07;5.03;;;2.45;;
7027;SDS011;3555;53.248;10.336;2023-06-14T03:45:33;6.50;;;2.97;;
7027;SDS011;3555;53.248;10.336;2023-06-14T03:48:00;5.38;;;3.05;;
7027;SDS011;3555;53.248;10.336;2023-06-14T03:50:28;4.57;;;2.67;;
7027;SDS011;3555;53.248;10.336;2023-06-14T03:52:55;7.57;;;3.22;;
7027;SDS011;3555;53.248;10.336;2023-06-14T03:55:22;6.78;;;3.00;;
7027;SDS011;3555;53.248;10.336;2023-06-14T03:57:51;4.53;;;3.00;;
7027;SDS011;3555;53.248;10.336;2023-06-14T04:00:18;8.43;;;2.90;;
7027;SDS011;3555;53.248;10.336;2023-06-14T04:02:45;7.72;;;3.10;;
7027;SDS011;3555;53.248;10.336;2023-06-14T04:05:12;4.68;;;2.90;;
7027;SDS011;3555;53.248;10.336;2023-06-14T04:07:41;5.68;;;2.83;;
7027;SDS011;3555;53.248;10.336;2023-06-14T04:10:10;5.10;;;3.00;;
7027;SDS011;3555;53.248;10.336;2023-06-14T04:12:37;5.10;;;3.10;;
7027;SDS011;3555;53.248;10.336;2023-06-14T04:15:06;5.32;;;3.25;;
7027;SDS011;3555;53.248;10.336;2023-06-14T04:17:34;5.72;;;3.13;;
7027;SDS011;3555;53.248;10.336;2023-06-14T04:20:03;4.13;;;2.88;;
7027;SDS011;3555;53.248;10.336;2023-06-14T04:22:34;8.40;;;3.22;;
7027;SDS011;3555;53.248;10.336;2023-06-14T04:25:01;4.72;;;3.03;;
7027;SDS011;3555;53.248;10.336;2023-06-14T04:27:28;7.07;;;3.40;;
7027;SDS011;3555;53.248;10.336;2023-06-14T04:30:01;8.32;;;3.75;;
7027;SDS011;3555;53.248;10.336;2023-06-14T04:32:29;9.38;;;3.45;;
7027;SDS011;3555;53.248;10.336;2023-06-14T04:34:58;4.75;;;3.10;;
7027;SDS011;3555;53.248;10.336;2023-06-14T04:37:27;6.38;;;3.30;;
7027;SDS011;3555;53.248;10.336;2023-06-14T04:39:54;4.93;;;2.88;;
7027;SDS011;3555;53.248;10.336;2023-06-14T04:42:21;7.75;;;2.90;;
7027;SDS011;3555;53.248;10.336;2023-06-14T04:44:50;6.68;;;3.42;;
7027;SDS011;3555;53.248;10.336;2023-06-14T04:47:21;5.88;;;2.80;;
7027;SDS011;3555;53.248;10.336;2023-06-14T04:49:51;8.73;;;3.00;;
7027;SDS011;3555;53.248;10.336;2023-06-14T04:52:18;5.63;;;3.08;;
7027;SDS011;3555;53.248;10.336;2023-06-14T04:54:46;6.93;;;3.42;;
7027;SDS011;3555;53.248;10.336;2023-06-14T04:57:13;4.88;;;3.40;;
7027;SDS011;3555;53.248;10.336;2023-06-14T04:59:42;8.65;;;4.05;;
7027;SDS011;3555;53.248;10.336;2023-06-14T05:02:09;6.72;;;3.30;;
7027;SDS011;3555;53.248;10.336;2023-06-14T05:04:36;6.28;;;3.58;;
7027;SDS011;3555;53.248;10.336;2023-06-14T05:07:07;4.55;;;3.08;;
7027;SDS011;3555;53.248;10.336;2023-06-14T05:09:34;6.70;;;3.60;;
7027;SDS011;3555;53.248;10.336;2023-06-14T05:12:01;6.53;;;3.30;;
7027;SDS011;3555;53.248;10.336;2023-06-14T05:14:28;5.95;;;3.03;;
7027;SDS011;3555;53.248;10.336;2023-06-14T05:16:55;9.13;;;3.00;;
7027;SDS011;3555;53.248;10.336;2023-06-14T05:19:22;5.35;;;3.53;;
7027;SDS011;3555;53.248;10.336;2023-06-14T05:21:49;7.03;;;3.00;;
7027;SDS011;3555;53.248;10.336;2023-06-14T05:24:17;8.45;;;3.13;;
7027;SDS011;3555;53.248;10.336;2023-06-14T05:26:44;4.85;;;3.25;;
7027;SDS011;3555;53.248;10.336;2023-06-14T05:29:11;4.88;;;2.80;;
7027;SDS011;3555;53.248;10.336;2023-06-14T05:31:38;5.45;;;2.95;;
7027;SDS011;3555;53.248;10.336;2023-06-14T05:34:05;7.50;;;3.08;;
7027;SDS011;3555;53.248;10.336;2023-06-14T05:36:32;6.72;;;3.28;;
7027;SDS011;3555;53.248;10.336;2023-06-14T05:38:59;8.18;;;3.35;;
7027;SDS011;3555;53.248;10.336;2023-06-14T05:41:29;7.88;;;3.05;;
7027;SDS011;3555;53.248;10.336;2023-06-14T05:43:56;9.02;;;3.45;;
7027;SDS011;3555;53.248;10.336;2023-06-14T05:46:25;5.57;;;3.03;;
7027;SDS011;3555;53.248;10.336;2023-06-14T05:48:52;11.48;;;3.55;;
7027;SDS011;3555;53.248;10.336;2023-06-14T05:51:19;7.97;;;2.75;;
7027;SDS011;3555;53.248;10.336;2023-06-14T05:53:46;7.03;;;3.22;;
7027;SDS011;3555;53.248;10.336;2023-06-14T05:56:13;6.60;;;2.78;;
7027;SDS011;3555;53.248;10.336;2023-06-14T05:58:42;7.15;;;3.10;;
7027;SDS011;3555;53.248;10.336;2023-06-14T06:01:09;4.45;;;2.58;;
7027;SDS011;3555;53.248;10.336;2023-06-14T06:03:36;9.30;;;3.10;;
7027;SDS011;3555;53.248;10.336;2023-06-14T06:06:03;4.65;;;2.70;;
7027;SDS011;3555;53.248;10.336;2023-06-14T06:08:30;4.40;;;2.47;;
7027;SDS011;3555;53.248;10.336;2023-06-14T06:10:57;4.93;;;2.63;;
7027;SDS011;3555;53.248;10.336;2023-06-14T06:13:25;4.43;;;2.75;;
7027;SDS011;3555;53.248;10.336;2023-06-14T06:15:53;4.38;;;2.30;;
7027;SDS011;3555;53.248;10.336;2023-06-14T06:18:21;8.98;;;2.50;;
7027;SDS011;3555;53.248;10.336;2023-06-14T06:20:48;5.55;;;2.47;;
7027;SDS011;3555;53.248;10.336;2023-06-14T06:23:15;7.93;;;2.63;;
7027;SDS011;3555;53.248;10.336;2023-06-14T06:25:42;3.67;;;2.30;;
7027;SDS011;3555;53.248;10.336;2023-06-14T06:28:09;7.72;;;3.05;;
7027;SDS011;3555;53.248;10.336;2023-06-14T06:30:36;4.95;;;2.05;;
7027;SDS011;3555;53.248;10.336;2023-06-14T06:33:04;7.60;;;2.65;;
7027;SDS011;3555;53.248;10.336;2023-06-14T06:35:31;5.63;;;2.50;;
7027;SDS011;3555;53.248;10.336;2023-06-14T06:37:58;4.47;;;2.90;;
7027;SDS011;3555;53.248;10.336;2023-06-14T06:40:26;7.82;;;2.65;;
7027;SDS011;3555;53.248;10.336;2023-06-14T06:42:53;5.55;;;2.25;;
7027;SDS011;3555;53.248;10.336;2023-06-14T06:45:20;5.38;;;3.00;;
7027;SDS011;3555;53.248;10.336;2023-06-14T06:47:48;4.53;;;2.55;;
7027;SDS011;3555;53.248;10.336;2023-06-14T06:50:18;4.28;;;2.50;;
7027;SDS011;3555;53.248;10.336;2023-06-14T06:52:45;3.38;;;2.38;;
7027;SDS011;3555;53.248;10.336;2023-06-14T06:55:12;4.03;;;2.45;;
7027;SDS011;3555;53.248;10.336;2023-06-14T06:57:38;4.80;;;2.50;;
7027;SDS011;3555;53.248;10.336;2023-06-14T07:00:06;4.30;;;2.13;;
7027;SDS011;3555;53.248;10.336;2023-06-14T07:02:35;3.83;;;2.35;;
7027;SDS011;3555;53.248;10.336;2023-06-14T07:05:02;5.13;;;2.85;;
7027;SDS011;3555;53.248;10.336;2023-06-14T07:07:30;5.30;;;2.40;;
7027;SDS011;3555;53.248;10.336;2023-06-14T07:09:57;2.88;;;2.38;;
7027;SDS011;3555;53.248;10.336;2023-06-14T07:12:25;3.80;;;2.30;;
7027;SDS011;3555;53.248;10.336;2023-06-14T07:14:52;3.10;;;2.63;;
7027;SDS011;3555;53.248;10.336;2023-06-14T07:17:19;3.80;;;2.35;;
7027;SDS011;3555;53.248;10.336;2023-06-14T07:19:45;6.40;;;2.38;;
7027;SDS011;3555;53.248;10.336;2023-06-14T07:22:12;3.10;;;2.25;;
7027;SDS011;3555;53.248;10.336;2023-06-14T07:24:41;3.60;;;2.20;;
7027;SDS011;3555;53.248;10.336;2023-06-14T07:27:07;6.70;;;2.30;;
7027;SDS011;3555;53.248;10.336;2023-06-14T07:29:35;3.65;;;2.08;;
7027;SDS011;3555;53.248;10.336;2023-06-14T07:32:01;4.10;;;2.47;;
7027;SDS011;3555;53.248;10.336;2023-06-14T07:34:28;4.70;;;2.20;;
7027;SDS011;3555;53.248;10.336;2023-06-14T07:36:55;3.20;;;2.20;;
7027;SDS011;3555;53.248;10.336;2023-06-14T07:39:22;5.10;;;2.03;;
7027;SDS011;3555;53.248;10.336;2023-06-14T07:41:50;3.63;;;2.38;;
7027;SDS011;3555;53.248;10.336;2023-06-14T07:44:17;2.95;;;2.10;;
7027;SDS011;3555;53.248;10.336;2023-06-14T07:46:44;4.55;;;2.42;;
7027;SDS011;3555;53.248;10.336;2023-06-14T07:49:14;2.95;;;2.08;;
7027;SDS011;3555;53.248;10.336;2023-06-14T07:51:41;2.60;;;2.25;;
7027;SDS011;3555;53.248;10.336;2023-06-14T07:54:09;5.53;;;2.25;;
7027;SDS011;3555;53.248;10.336;2023-06-14T07:56:36;5.10;;;2.15;;
7027;SDS011;3555;53.248;10.336;2023-06-14T07:59:04;5.25;;;1.80;;
7027;SDS011;3555;53.248;10.336;2023-06-14T08:01:32;5.28;;;1.90;;
7027;SDS011;3555;53.248;10.336;2023-06-14T08:03:59;3.15;;;1.88;;
7027;SDS011;3555;53.248;10.336;2023-06-14T08:06:26;6.20;;;1.77;;
7027;SDS011;3555;53.248;10.336;2023-06-14T08:08:53;2.33;;;1.85;;
7027;SDS011;3555;53.248;10.336;2023-06-14T08:11:20;5.00;;;1.70;;
7027;SDS011;3555;53.248;10.336;2023-06-14T08:13:49;4.30;;;2.00;;
7027;SDS011;3555;53.248;10.336;2023-06-14T08:16:17;4.47;;;2.28;;
7027;SDS011;3555;53.248;10.336;2023-06-14T08:18:44;3.58;;;2.33;;
7027;SDS011;3555;53.248;10.336;2023-06-14T08:21:11;6.15;;;1.73;;
7027;SDS011;3555;53.248;10.336;2023-06-14T08:23:39;2.95;;;2.08;;
7027;SDS011;3555;53.248;10.336;2023-06-14T08:26:07;4.82;;;2.22;;
7027;SDS011;3555;53.248;10.336;2023-06-14T08:28:34;5.38;;;2.22;;
7027;SDS011;3555;53.248;10.336;2023-06-14T08:31:01;6.88;;;2.53;;
7027;SDS011;3555;53.248;10.336;2023-06-14T08:33:30;6.57;;;2.28;;
7027;SDS011;3555;53.248;10.336;2023-06-14T08:35:59;3.05;;;1.90;;
7027;SDS011;3555;53.248;10.336;2023-06-14T08:38:25;3.20;;;1.95;;
7027;SDS011;3555;53.248;10.336;2023-06-14T08:40:52;3.53;;;2.13;;
7027;SDS011;3555;53.248;10.336;2023-06-14T08:43:24;5.55;;;2.20;;
7027;SDS011;3555;53.248;10.336;2023-06-14T08:45:51;5.40;;;2.15;;
7027;SDS011;3555;53.248;10.336;2023-06-14T08:48:24;4.82;;;2.05;;
7027;SDS011;3555;53.248;10.336;2023-06-14T08:50:55;6.03;;;2.42;;
7027;SDS011;3555;53.248;10.336;2023-06-14T08:53:27;5.55;;;2.40;;
7027;SDS011;3555;53.248;10.336;2023-06-14T08:55:57;3.42;;;2.10;;
7027;SDS011;3555;53.248;10.336;2023-06-14T08:58:26;8.80;;;2.33;;
7027;SDS011;3555;53.248;10.336;2023-06-14T09:00:54;6.78;;;2.97;;
7027;SDS011;3555;53.248;10.336;2023-06-14T09:03:22;4.53;;;2.17;;
7027;SDS011;3555;53.248;10.336;2023-06-14T09:05:56;3.20;;;2.33;;
7027;SDS011;3555;53.248;10.336;2023-06-14T09:08:25;6.53;;;2.42;;
7027;SDS011;3555;53.248;10.336;2023-06-14T09:10:55;4.90;;;2.22;;
7027;SDS011;3555;53.248;10.336;2023-06-14T09:13:23;3.33;;;2.40;;
7027;SDS011;3555;53.248;10.336;2023-06-14T09:15:50;4.35;;;2.30;;
7027;SDS011;3555;53.248;10.336;2023-06-14T09:18:20;5.53;;;2.17;;
7027;SDS011;3555;53.248;10.336;2023-06-14T09:20:46;2.90;;;2.30;;
7027;SDS011;3555;53.248;10.336;2023-06-14T09:23:15;4.93;;;2.33;;
7027;SDS011;3555;53.248;10.336;2023-06-14T09:25:47;5.00;;;2.40;;
7027;SDS011;3555;53.248;10.336;2023-06-14T09:28:14;4.07;;;2.10;;
7027;SDS011;3555;53.248;10.336;2023-06-14T09:30:41;5.28;;;2.25;;
7027;SDS011;3555;53.248;10.336;2023-06-14T09:33:08;4.78;;;2.22;;
7027;SDS011;3555;53.248;10.336;2023-06-14T09:35:35;4.63;;;2.58;;
7027;SDS011;3555;53.248;10.336;2023-06-14T09:38:02;3.72;;;2.30;;
7027;SDS011;3555;53.248;10.336;2023-06-14T09:40:33;4.25;;;2.40;;
7027;SDS011;3555;53.248;10.336;2023-06-14T09:43:00;5.43;;;2.60;;
7027;SDS011;3555;53.248;10.336;2023-06-14T09:45:31;5.63;;;2.15;;
7027;SDS011;3555;53.248;10.336;2023-06-14T09:47:59;10.20;;;2.55;;
7027;SDS011;3555;53.248;10.336;2023-06-14T09:50:28;4.10;;;2.42;;
7027;SDS011;3555;53.248;10.336;2023-06-14T09:52:55;4.38;;;2.30;;
7027;SDS011;3555;53.248;10.336;2023-06-14T09:55:27;8.88;;;2.45;;
7027;SDS011;3555;53.248;10.336;2023-06-14T09:57:58;3.47;;;2.28;;
7027;SDS011;3555;53.248;10.336;2023-06-14T10:00:26;9.38;;;2.55;;
7027;SDS011;3555;53.248;10.336;2023-06-14T10:02:58;9.63;;;2.47;;
7027;SDS011;3555;53.248;10.336;2023-06-14T10:05:32;7.32;;;2.53;;
7027;SDS011;3555;53.248;10.336;2023-06-14T10:08:04;3.35;;;2.35;;
7027;SDS011;3555;53.248;10.336;2023-06-14T10:10:33;4.72;;;2.17;;
7027;SDS011;3555;53.248;10.336;2023-06-14T10:13:02;12.02;;;2.40;;
7027;SDS011;3555;53.248;10.336;2023-06-14T10:15:30;5.85;;;2.75;;
7027;SDS011;3555;53.248;10.336;2023-06-14T10:18:01;5.47;;;2.13;;
7027;SDS011;3555;53.248;10.336;2023-06-14T10:20:35;7.70;;;2.88;;
7027;SDS011;3555;53.248;10.336;2023-06-14T10:23:08;5.78;;;2.40;;
7027;SDS011;3555;53.248;10.336;2023-06-14T10:25:39;4.47;;;2.28;;
7027;SDS011;3555;53.248;10.336;2023-06-14T10:28:16;4.65;;;2.30;;
7027;SDS011;3555;53.248;10.336;2023-06-14T10:31:06;3.13;;;2.17;;
7027;SDS011;3555;53.248;10.336;2023-06-14T10:33:34;3.22;;;2.28;;
7027;SDS011;3555;53.248;10.336;2023-06-14T10:38:59;4.18;;;2.50;;
7027;SDS011;3555;53.248;10.336;2023-06-14T10:41:28;5.60;;;2.42;;
7027;SDS011;3555;53.248;10.336;2023-06-14T10:50:03;4.20;;;2.25;;
7027;SDS011;3555;53.248;10.336;2023-06-14T10:52:32;9.55;;;2.80;;
7027;SDS011;3555;53.248;10.336;2023-06-14T10:55:07;4.00;;;2.28;;
7027;SDS011;3555;53.248;10.336;2023-06-14T10:57:36;6.35;;;2.67;;
7027;SDS011;3555;53.248;10.336;2023-06-14T11:00:05;4.50;;;2.35;;
7027;SDS011;3555;53.248;10.336;2023-06-14T11:05:50;9.65;;;2.30;;
7027;SDS011;3555;53.248;10.336;2023-06-14T11:11:29;4.50;;;2.25;;
7027;SDS011;3555;53.248;10.336;2023-06-14T11:13:59;6.65;;;1.98;;
7027;SDS011;3555;53.248;10.336;2023-06-14T11:16:26;4.13;;;2.50;;
7027;SDS011;3555;53.248;10.336;2023-06-14T11:18:54;4.85;;;2.58;;
7027;SDS011;3555;53.248;10.336;2023-06-14T11:21:23;8.00;;;2.50;;
7027;SDS011;3555;53.248;10.336;2023-06-14T11:23:56;4.80;;;2.10;;
7027;SDS011;3555;53.248;10.336;2023-06-14T11:26:26;7.32;;;2.05;;
7027;SDS011;3555;53.248;10.336;2023-06-14T11:28:57;4.50;;;2.42;;
7027;SDS011;3555;53.248;10.336;2023-06-14T11:31:25;7.47;;;2.15;;
7027;SDS011;3555;53.248;10.336;2023-06-14T11:33:53;8.15;;;2.47;;
7027;SDS011;3555;53.248;10.336;2023-06-14T11:36:24;4.57;;;2.30;;
7027;SDS011;3555;53.248;10.336;2023-06-14T11:38:59;2.25;;;1.80;;
7027;SDS011;3555;53.248;10.336;2023-06-14T11:41:31;5.07;;;2.28;;
7027;SDS011;3555;53.248;10.336;2023-06-14T11:44:00;4.25;;;2.03;;
7027;SDS011;3555;53.248;10.336;2023-06-14T11:46:27;6.95;;;2.20;;
7027;SDS011;3555;53.248;10.336;2023-06-14T11:48:54;8.88;;;2.28;;
7027;SDS011;3555;53.248;10.336;2023-06-14T11:51:22;3.65;;;2.38;;
7027;SDS011;3555;53.248;10.336;2023-06-14T11:53:50;3.70;;;2.53;;
7027;SDS011;3555;53.248;10.336;2023-06-14T11:56:17;8.45;;;2.03;;
7027;SDS011;3555;53.248;10.336;2023-06-14T11:58:44;5.40;;;2.00;;
7027;SDS011;3555;53.248;10.336;2023-06-14T12:01:14;5.22;;;2.00;;
7027;SDS011;3555;53.248;10.336;2023-06-14T12:03:47;3.15;;;2.03;;
7027;SDS011;3555;53.248;10.336;2023-06-14T12:06:14;5.28;;;2.22;;
7027;SDS011;3555;53.248;10.336;2023-06-14T12:08:44;5.32;;;2.33;;
7027;SDS011;3555;53.248;10.336;2023-06-14T12:11:14;4.00;;;2.30;;
7027;SDS011;3555;53.248;10.336;2023-06-14T12:13:42;5.47;;;2.30;;
7027;SDS011;3555;53.248;10.336;2023-06-14T12:16:14;5.65;;;2.83;;
7027;SDS011;3555;53.248;10.336;2023-06-14T12:18:41;7.50;;;2.78;;
7027;SDS011;3555;53.248;10.336;2023-06-14T12:21:08;8.45;;;2.30;;
7027;SDS011;3555;53.248;10.336;2023-06-14T12:23:44;5.00;;;2.10;;
7027;SDS011;3555;53.248;10.336;2023-06-14T12:26:14;5.82;;;2.50;;
7027;SDS011;3555;53.248;10.336;2023-06-14T12:28:42;6.65;;;2.40;;
7027;SDS011;3555;53.248;10.336;2023-06-14T12:31:11;4.65;;;2.40;;
7027;SDS011;3555;53.248;10.336;2023-06-14T12:33:38;4.82;;;2.10;;
7027;SDS011;3555;53.248;10.336;2023-06-14T12:36:06;7.35;;;2.15;;
7027;SDS011;3555;53.248;10.336;2023-06-14T12:38:34;3.78;;;2.05;;
7027;SDS011;3555;53.248;10.336;2023-06-14T12:41:02;4.80;;;2.17;;
7027;SDS011;3555;53.248;10.336;2023-06-14T12:43:29;4.80;;;2.00;;
7027;SDS011;3555;53.248;10.336;2023-06-14T12:45:56;3.55;;;1.80;;
7027;SDS011;3555;53.248;10.336;2023-06-14T12:48:23;6.13;;;2.38;;
7027;SDS011;3555;53.248;10.336;2023-06-14T12:50:52;10.18;;;2.15;;
7027;SDS011;3555;53.248;10.336;2023-06-14T12:53:19;5.75;;;2.10;;
7027;SDS011;3555;53.248;10.336;2023-06-14T12:55:46;6.57;;;2.40;;
7027;SDS011;3555;53.248;10.336;2023-06-14T12:58:14;2.97;;;2.17;;
7027;SDS011;3555;53.248;10.336;2023-06-14T13:00:42;14.35;;;2.63;;
7027;SDS011;3555;53.248;10.336;2023-06-14T13:03:09;6.35;;;2.38;;
7027;SDS011;3555;53.248;10.336;2023-06-14T13:05:36;6.72;;;2.47;;
7027;SDS011;3555;53.248;10.336;2023-06-14T13:08:06;3.35;;;1.98;;
7027;SDS011;3555;53.248;10.336;2023-06-14T13:10:33;3.92;;;1.95;;
7027;SDS011;3555;53.248;10.336;2023-06-14T13:13:00;6.80;;;1.90;;
7027;SDS011;3555;53.248;10.336;2023-06-14T13:15:28;4.70;;;1.80;;
7027;SDS011;3555;53.248;10.336;2023-06-14T13:17:56;6.22;;;2.17;;
7027;SDS011;3555;53.248;10.336;2023-06-14T13:20:22;5.50;;;2.10;;
7027;SDS011;3555;53.248;10.336;2023-06-14T13:22:49;8.23;;;2.25;;
7027;SDS011;3555;53.248;10.336;2023-06-14T13:25:16;6.50;;;2.20;;
7027;SDS011;3555;53.248;10.336;2023-06-14T13:27:43;9.38;;;2.33;;
7027;SDS011;3555;53.248;10.336;2023-06-14T13:30:11;5.47;;;2.20;;
7027;SDS011;3555;53.248;10.336;2023-06-14T13:32:39;4.47;;;1.73;;
7027;SDS011;3555;53.248;10.336;2023-06-14T13:35:06;5.00;;;2.42;;
7027;SDS011;3555;53.248;10.336;2023-06-14T13:37:33;4.97;;;2.20;;
7027;SDS011;3555;53.248;10.336;2023-06-14T13:40:00;5.38;;;2.63;;
7027;SDS011;3555;53.248;10.336;2023-06-14T13:42:27;2.75;;;1.90;;
7027;SDS011;3555;53.248;10.336;2023-06-14T13:44:56;9.60;;;1.98;;
7027;SDS011;3555;53.248;10.336;2023-06-14T13:47:23;8.30;;;2.17;;
7027;SDS011;3555;53.248;10.336;2023-06-14T13:49:52;8.85;;;2.17;;
7027;SDS011;3555;53.248;10.336;2023-06-14T13:52:18;3.25;;;1.90;;
7027;SDS011;3555;53.248;10.336;2023-06-14T13:54:45;3.83;;;2.20;;
7027;SDS011;3555;53.248;10.336;2023-06-14T13:57:12;4.95;;;2.20;;
7027;SDS011;3555;53.248;10.336;2023-06-14T13:59:39;4.45;;;2.13;;
7027;SDS011;3555;53.248;10.336;2023-06-14T14:02:06;2.17;;;1.90;;
7027;SDS011;3555;53.248;10.336;2023-06-14T14:04:33;4.22;;;2.15;;
7027;SDS011;3555;53.248;10.336;2023-06-14T14:07:02;3.67;;;2.05;;
7027;SDS011;3555;53.248;10.336;2023-06-14T14:09:30;6.40;;;2.03;;
7027;SDS011;3555;53.248;10.336;2023-06-14T14:11:57;4.38;;;2.17;;
7027;SDS011;3555;53.248;10.336;2023-06-14T14:14:25;3.78;;;2.00;;
7027;SDS011;3555;53.248;10.336;2023-06-14T14:16:53;4.80;;;2.20;;
7027;SDS011;3555;53.248;10.336;2023-06-14T14:19:20;6.53;;;2.13;;
7027;SDS011;3555;53.248;10.336;2023-06-14T14:21:47;5.57;;;2.00;;
7027;SDS011;3555;53.248;10.336;2023-06-14T14:24:15;6.75;;;2.15;;
7027;SDS011;3555;53.248;10.336;2023-06-14T14:26:42;3.50;;;2.03;;
7027;SDS011;3555;53.248;10.336;2023-06-14T14:29:09;3.92;;;2.17;;
7027;SDS011;3555;53.248;10.336;2023-06-14T14:31:36;8.35;;;2.40;;
7027;SDS011;3555;53.248;10.336;2023-06-14T14:34:03;11.18;;;2.90;;
7027;SDS011;3555;53.248;10.336;2023-06-14T14:36:31;5.75;;;2.08;;
7027;SDS011;3555;53.248;10.336;2023-06-14T14:38:58;4.13;;;2.22;;
7027;SDS011;3555;53.248;10.336;2023-06-14T14:41:27;7.18;;;2.13;;
7027;SDS011;3555;53.248;10.336;2023-06-14T14:43:54;5.82;;;2.15;;
7027;SDS011;3555;53.248;10.336;2023-06-14T14:46:20;3.60;;;2.55;;
7027;SDS011;3555;53.248;10.336;2023-06-14T14:48:48;7.53;;;2.10;;
7027;SDS011;3555;53.248;10.336;2023-06-14T14:51:15;3.97;;;2.13;;
7027;SDS011;3555;53.248;10.336;2023-06-14T14:53:42;4.68;;;2.20;;
7027;SDS011;3555;53.248;10.336;2023-06-14T14:56:09;9.93;;;2.55;;
7027;SDS011;3555;53.248;10.336;2023-06-14T14:58:38;6.15;;;2.47;;
7027;SDS011;3555;53.248;10.336;2023-06-14T15:01:05;6.18;;;2.35;;
7027;SDS011;3555;53.248;10.336;2023-06-14T15:03:32;3.88;;;2.35;;
7027;SDS011;3555;53.248;10.336;2023-06-14T15:05:59;4.75;;;2.10;;
7027;SDS011;3555;53.248;10.336;2023-06-14T15:08:25;6.80;;;2.00;;
7027;SDS011;3555;53.248;10.336;2023-06-14T15:10:52;4.57;;;2.10;;
7027;SDS011;3555;53.248;10.336;2023-06-14T15:13:19;2.80;;;2.00;;
7027;SDS011;3555;53.248;10.336;2023-06-14T15:15:49;3.75;;;2.00;;
7027;SDS011;3555;53.248;10.336;2023-06-14T15:18:16;3.85;;;1.95;;
7027;SDS011;3555;53.248;10.336;2023-06-14T15:20:45;5.53;;;2.10;;